createdAt,value
2023-05-10T00:00:57.827Z,3.40
2023-05-10T00:03:25.547Z,3.40
2023-05-10T00:05:54.458Z,3.38
2023-05-10T00:08:21.949Z,3.40
2023-05-10T00:10:49.570Z,3.13
2023-05-10T00:13:17.444Z,3.45
2023-05-10T00:15:44.991Z,4.00
2023-05-10T00:18:12.561Z,3.50
2023-05-10T00:20:40.036Z,3.70
2023-05-10T00:23:08.837Z,3.53
2023-05-10T00:25:36.305Z,3.40
2023-05-10T00:28:03.792Z,3.60
2023-05-10T00:30:31.275Z,3.20
2023-05-10T00:32:58.834Z,4.05
2023-05-10T00:35:26.998Z,3.60
2023-05-10T00:37:54.580Z,3.50
2023-05-10T00:40:23.568Z,3.65
2023-05-10T00:42:51.053Z,3.78
2023-05-10T00:45:18.570Z,3.35
2023-05-10T00:47:46.138Z,3.33
2023-05-10T00:50:13.976Z,3.85
2023-05-10T00:52:42.581Z,3.45
2023-05-10T00:55:11.838Z,3.33
2023-05-10T00:57:40.880Z,3.90
2023-05-10T01:00:12.464Z,3.58
2023-05-10T01:02:40.455Z,3.83
2023-05-10T01:05:08.696Z,4.15
2023-05-10T01:07:36.292Z,4.07
2023-05-10T01:10:03.832Z,3.80
2023-05-10T01:12:31.633Z,4.13
2023-05-10T01:15:02.127Z,3.88
2023-05-10T01:17:29.909Z,4.03
2023-05-10T01:19:57.474Z,4.10
2023-05-10T01:22:44.968Z,4.50
2023-05-10T01:25:33.819Z,3.75
2023-05-10T01:28:30.754Z,4.22
2023-05-10T01:31:32.796Z,4.68
2023-05-10T01:34:08.877Z,4.32
2023-05-10T01:36:44.225Z,4.50
2023-05-10T01:39:17.552Z,4.90
2023-05-10T01:41:51.818Z,4.55
2023-05-10T01:44:26.705Z,4.47
2023-05-10T01:47:00.110Z,4.85
2023-05-10T01:49:33.897Z,4.82
2023-05-10T01:52:05.341Z,4.53
2023-05-10T01:54:36.329Z,4.25
2023-05-10T01:57:08.402Z,4.05
2023-05-10T01:59:41.567Z,4.47
2023-05-10T02:02:12.688Z,4.47
2023-05-10T02:04:42.844Z,4.68
2023-05-10T02:07:11.457Z,4.22
2023-05-10T02:09:40.020Z,4.05
2023-05-10T02:12:09.546Z,4.15
2023-05-10T02:14:38.682Z,4.30
2023-05-10T02:17:08.776Z,4.15
2023-05-10T02:19:39.463Z,4.88
2023-05-10T02:22:09.963Z,4.63
2023-05-10T02:24:39.375Z,4.35
2023-05-10T02:27:08.142Z,4.80
2023-05-10T02:29:36.456Z,4.72
2023-05-10T02:32:04.956Z,4.68
2023-05-10T02:34:33.678Z,4.95
2023-05-10T02:37:03.016Z,5.07
2023-05-10T02:39:33.659Z,4.57
2023-05-10T02:42:02.543Z,5.22
2023-05-10T02:44:32.122Z,5.18
2023-05-10T02:46:59.858Z,4.88
2023-05-10T02:49:27.415Z,5.10
2023-05-10T02:51:59.331Z,5.35
2023-05-10T02:54:36.805Z,5.75
2023-05-10T02:57:07.868Z,5.28
2023-05-10T02:59:35.463Z,5.25
2023-05-10T03:02:04.837Z,5.03
2023-05-10T03:04:32.369Z,5.35
2023-05-10T03:07:00.238Z,5.30
2023-05-10T03:09:27.962Z,5.50
2023-05-10T03:12:02.803Z,5.13
2023-05-10T03:14:47.365Z,5.68
2023-05-10T03:17:24.845Z,5.70
2023-05-10T03:19:57.037Z,5.90
2023-05-10T03:22:27.702Z,5.70
2023-05-10T03:24:58.552Z,6.25
2023-05-10T03:27:28.120Z,5.85
2023-05-10T03:29:57.888Z,5.80
2023-05-10T03:32:25.412Z,6.40
2023-05-10T03:34:52.912Z,6.40
2023-05-10T03:37:20.452Z,6.75
2023-05-10T03:39:47.971Z,6.65
2023-05-10T03:42:15.467Z,6.60
2023-05-10T03:44:42.923Z,6.75
2023-05-10T03:47:11.773Z,6.20
2023-05-10T03:49:39.269Z,6.63
2023-05-10T03:52:07.515Z,7.13
2023-05-10T03:54:35.018Z,6.97
2023-05-10T03:57:03.850Z,7.43
2023-05-10T03:59:31.423Z,7.45
2023-05-10T04:01:58.935Z,6.63
2023-05-10T04:04:27.749Z,6.93
2023-05-10T04:06:55.819Z,7.60
2023-05-10T04:09:23.274Z,7.60
2023-05-10T04:11:50.858Z,7.55
2023-05-10T04:14:18.442Z,7.70
2023-05-10T04:16:45.980Z,7.03
2023-05-10T04:19:13.490Z,7.65
2023-05-10T04:21:42.325Z,7.63
2023-05-10T04:24:09.797Z,7.97
2023-05-10T04:26:37.247Z,8.25
2023-05-10T04:29:04.773Z,8.70
2023-05-10T04:31:32.236Z,9.02
2023-05-10T04:33:59.744Z,9.00
2023-05-10T04:36:27.286Z,8.60
2023-05-10T04:38:56.109Z,8.35
2023-05-10T04:41:23.567Z,9.07
2023-05-10T04:43:51.098Z,8.98
2023-05-10T04:46:18.644Z,8.93
2023-05-10T04:48:46.137Z,9.43
2023-05-10T04:51:13.622Z,8.38
2023-05-10T04:53:43.008Z,9.88
2023-05-10T04:56:13.412Z,9.70
2023-05-10T04:58:40.905Z,9.38
2023-05-10T05:01:09.187Z,9.90
2023-05-10T05:03:37.107Z,10.27
2023-05-10T05:06:05.383Z,10.27
2023-05-10T05:08:32.993Z,9.90
2023-05-10T05:11:00.470Z,9.57
2023-05-10T05:13:29.573Z,9.52
2023-05-10T05:15:57.149Z,9.48
2023-05-10T05:18:24.641Z,10.60
2023-05-10T05:20:52.105Z,9.80
2023-05-10T05:23:21.570Z,9.15
2023-05-10T05:25:49.078Z,9.05
2023-05-10T05:28:16.694Z,8.02
2023-05-10T05:30:45.484Z,8.05
2023-05-10T05:33:12.999Z,6.82
2023-05-10T05:35:40.518Z,7.38
2023-05-10T05:38:08.006Z,6.57
2023-05-10T05:40:35.720Z,4.88
2023-05-10T05:43:03.364Z,5.70
2023-05-10T05:45:30.872Z,5.53
2023-05-10T05:47:59.853Z,4.88
2023-05-10T05:50:27.420Z,4.78
2023-05-10T05:52:54.882Z,4.60
2023-05-10T05:55:22.356Z,4.85
2023-05-10T05:57:49.805Z,4.32
2023-05-10T06:00:18.180Z,3.63
2023-05-10T06:02:45.728Z,3.28
2023-05-10T06:05:15.110Z,4.30
2023-05-10T06:07:43.754Z,3.33
2023-05-10T06:10:11.741Z,3.00
2023-05-10T06:12:39.220Z,3.53
2023-05-10T06:15:07.598Z,2.85
2023-05-10T06:17:35.069Z,2.92
2023-05-10T06:20:02.640Z,2.58
2023-05-10T06:22:31.429Z,2.20
2023-05-10T06:24:58.878Z,2.40
2023-05-10T06:27:26.868Z,2.13
2023-05-10T06:30:02.154Z,2.47
2023-05-10T06:32:33.209Z,2.67
2023-05-10T06:35:00.717Z,2.42
2023-05-10T06:37:28.208Z,2.60
2023-05-10T06:39:57.072Z,2.10
2023-05-10T06:42:26.300Z,2.50
2023-05-10T06:44:54.056Z,2.05
2023-05-10T06:47:21.721Z,2.97
2023-05-10T06:49:49.188Z,3.00
2023-05-10T06:52:16.653Z,2.65
2023-05-10T06:54:44.108Z,2.60
2023-05-10T06:57:23.259Z,2.75
2023-05-10T06:59:58.511Z,3.05
2023-05-10T07:02:26.264Z,2.88
2023-05-10T07:04:54.125Z,3.03
2023-05-10T07:07:21.763Z,2.58
2023-05-10T07:09:50.586Z,2.78
2023-05-10T07:12:19.592Z,2.90
2023-05-10T07:14:47.541Z,2.50
2023-05-10T07:17:15.033Z,2.42
2023-05-10T07:19:42.601Z,1.85
2023-05-10T07:22:10.062Z,2.00
2023-05-10T07:24:37.688Z,2.00
2023-05-10T07:27:05.402Z,1.80
2023-05-10T07:29:34.593Z,1.98
2023-05-10T07:32:02.147Z,2.00
2023-05-10T07:34:31.076Z,1.70
2023-05-10T07:37:01.129Z,1.90
2023-05-10T07:39:28.743Z,2.00
2023-05-10T07:41:56.699Z,1.88
2023-05-10T07:44:24.564Z,2.20
2023-05-10T07:46:53.498Z,1.98
2023-05-10T07:49:21.000Z,2.30
2023-05-10T07:51:48.835Z,2.00
2023-05-10T07:54:16.315Z,2.47
2023-05-10T07:56:46.531Z,2.00
2023-05-10T07:59:17.732Z,1.92
2023-05-10T08:01:45.530Z,2.10
2023-05-10T08:04:14.369Z,2.03
2023-05-10T08:06:42.043Z,2.00
2023-05-10T08:09:10.059Z,2.30
2023-05-10T08:11:37.606Z,2.13
2023-05-10T08:14:05.128Z,2.20
2023-05-10T08:16:33.299Z,1.83
2023-05-10T08:19:00.980Z,1.40
2023-05-10T08:21:29.944Z,1.50
2023-05-10T08:23:57.457Z,2.00
2023-05-10T08:26:24.961Z,1.65
2023-05-10T08:28:52.426Z,1.55
2023-05-10T08:31:20.156Z,1.50
2023-05-10T08:33:47.689Z,1.48
2023-05-10T08:36:20.538Z,1.65
2023-05-10T08:38:50.278Z,1.70
2023-05-10T08:41:19.100Z,1.73
2023-05-10T08:43:47.946Z,1.90
2023-05-10T08:46:18.589Z,1.75
2023-05-10T08:48:47.284Z,1.67
2023-05-10T08:51:17.383Z,1.90
2023-05-10T08:53:46.067Z,1.50
2023-05-10T08:56:16.538Z,1.60
2023-05-10T08:58:44.181Z,1.52
2023-05-10T09:01:12.066Z,1.90
2023-05-10T09:03:40.424Z,1.70
2023-05-10T09:06:08.664Z,1.95
2023-05-10T09:08:38.109Z,1.92
2023-05-10T09:11:05.784Z,1.90
2023-05-10T09:13:34.859Z,1.70
2023-05-10T09:16:13.574Z,1.95
2023-05-10T09:18:48.421Z,1.77
2023-05-10T09:21:16.073Z,1.67
2023-05-10T09:23:47.373Z,1.80
2023-05-10T09:26:15.682Z,1.95
2023-05-10T09:28:54.581Z,1.60
2023-05-10T09:31:22.096Z,1.73
2023-05-10T09:33:50.670Z,1.80
2023-05-10T09:36:18.890Z,1.70
2023-05-10T09:38:52.686Z,1.67
2023-05-10T09:41:21.622Z,1.90
2023-05-10T09:43:49.402Z,1.40
2023-05-10T09:46:18.391Z,1.70
2023-05-10T09:48:48.044Z,1.80
2023-05-10T09:51:21.834Z,1.60
2023-05-10T09:53:51.445Z,1.80
2023-05-10T09:56:38.312Z,1.70
2023-05-10T09:59:06.354Z,1.90
2023-05-10T10:01:35.504Z,1.80
2023-05-10T10:04:05.130Z,1.80
2023-05-10T10:06:37.715Z,1.83
2023-05-10T10:09:05.732Z,1.70
2023-05-10T10:11:33.767Z,1.50
2023-05-10T10:14:01.545Z,1.90
2023-05-10T10:16:30.688Z,1.60
2023-05-10T10:19:00.481Z,1.40
2023-05-10T10:21:28.690Z,1.20
2023-05-10T10:23:56.871Z,1.20
2023-05-10T10:26:25.987Z,1.20
2023-05-10T10:29:02.127Z,1.60
2023-05-10T10:31:36.855Z,1.98
2023-05-10T10:34:08.762Z,2.20
2023-05-10T10:36:42.601Z,1.75
2023-05-10T10:39:11.831Z,1.75
2023-05-10T10:41:44.758Z,2.33
2023-05-10T10:44:43.449Z,2.00
2023-05-10T10:47:28.339Z,1.92
2023-05-10T10:50:07.647Z,2.20
2023-05-10T10:52:36.144Z,2.60
2023-05-10T10:55:06.213Z,2.30
2023-05-10T10:57:35.650Z,1.98
2023-05-10T11:00:26.278Z,1.63
2023-05-10T11:02:55.572Z,1.85
2023-05-10T11:05:36.506Z,2.30
2023-05-10T11:08:13.581Z,1.83
2023-05-10T11:10:42.509Z,1.75
2023-05-10T11:13:11.314Z,1.95
2023-05-10T11:15:40.444Z,2.00
2023-05-10T11:18:21.390Z,2.53
2023-05-10T11:20:54.668Z,2.00
2023-05-10T11:23:22.270Z,2.58
2023-05-10T11:25:51.069Z,2.30
2023-05-10T11:28:20.095Z,1.60
2023-05-10T11:30:47.700Z,1.50
2023-05-10T11:33:20.344Z,1.55
2023-05-10T11:35:48.177Z,1.60
2023-05-10T11:38:17.266Z,1.40
2023-05-10T11:40:45.357Z,1.60
2023-05-10T11:43:13.251Z,1.42
2023-05-10T11:45:43.208Z,1.63
2023-05-10T11:48:10.766Z,1.50
2023-05-10T11:50:38.376Z,1.25
2023-05-10T11:53:06.253Z,1.50
2023-05-10T11:55:36.622Z,1.40
2023-05-10T11:58:04.606Z,1.50
2023-05-10T12:00:33.014Z,1.60
2023-05-10T12:03:02.573Z,1.60
2023-05-10T12:05:33.513Z,1.98
2023-05-10T12:08:13.077Z,2.45
2023-05-10T12:10:42.062Z,2.33
2023-05-10T12:13:13.870Z,1.92
2023-05-10T12:15:41.418Z,1.75
2023-05-10T12:18:11.334Z,1.80
2023-05-10T12:20:39.668Z,1.83
2023-05-10T12:23:07.922Z,1.80
2023-05-10T12:25:36.732Z,1.50
2023-05-10T12:28:07.911Z,1.70
2023-05-10T12:30:36.721Z,1.67
2023-05-10T12:33:09.208Z,2.10
2023-05-10T12:35:46.687Z,2.10
2023-05-10T12:38:31.598Z,2.47
2023-05-10T12:41:00.373Z,1.73
2023-05-10T12:43:29.296Z,1.70
2023-05-10T12:45:56.913Z,1.70
2023-05-10T12:48:24.892Z,1.70
2023-05-10T12:50:52.400Z,1.58
2023-05-10T12:53:19.868Z,1.73
2023-05-10T12:55:47.332Z,1.67
2023-05-10T12:58:27.841Z,2.42
2023-05-10T13:01:03.910Z,1.67
2023-05-10T13:03:31.527Z,1.88
2023-05-10T13:05:59.199Z,2.13
2023-05-10T13:08:26.722Z,2.30
2023-05-10T13:10:54.259Z,2.10
2023-05-10T13:13:21.719Z,2.17
2023-05-10T13:15:49.194Z,2.08
2023-05-10T13:18:18.152Z,2.20
2023-05-10T13:20:46.116Z,2.22
2023-05-10T13:23:13.661Z,2.10
2023-05-10T13:25:41.198Z,2.30
2023-05-10T13:28:08.662Z,1.70
2023-05-10T13:30:36.118Z,1.80
2023-05-10T13:33:03.619Z,1.90
2023-05-10T13:35:32.439Z,2.00
2023-05-10T13:37:59.992Z,2.40
2023-05-10T13:40:27.471Z,2.50
2023-05-10T13:42:54.946Z,2.38
2023-05-10T13:45:22.514Z,2.10
2023-05-10T13:47:50.031Z,2.13
2023-05-10T13:50:17.831Z,2.10
2023-05-10T13:52:46.650Z,2.13
2023-05-10T13:55:15.276Z,2.20
2023-05-10T13:57:44.087Z,2.17
2023-05-10T14:00:12.580Z,2.38
2023-05-10T14:02:40.077Z,2.38
2023-05-10T14:05:08.065Z,1.98
2023-05-10T14:07:35.520Z,2.17
2023-05-10T14:10:04.747Z,2.40
2023-05-10T14:12:32.351Z,2.17
2023-05-10T14:14:59.996Z,2.30
2023-05-10T14:17:27.519Z,2.47
2023-05-10T14:19:55.069Z,2.38
2023-05-10T14:22:22.927Z,2.58
2023-05-10T14:24:51.066Z,2.17
2023-05-10T14:27:20.409Z,2.72
2023-05-10T14:29:47.859Z,2.50
2023-05-10T14:32:15.458Z,2.13
2023-05-10T14:34:43.138Z,2.00
2023-05-10T14:37:12.240Z,2.25
2023-05-10T14:39:40.040Z,2.50
2023-05-10T14:42:07.823Z,2.30
2023-05-10T14:44:36.620Z,2.92
2023-05-10T14:47:04.088Z,2.60
2023-05-10T14:49:31.716Z,2.83
2023-05-10T14:51:59.232Z,3.10
2023-05-10T14:54:26.868Z,4.05
2023-05-10T14:56:54.319Z,3.92
2023-05-10T14:59:22.563Z,4.03
2023-05-10T15:01:51.790Z,2.83
2023-05-10T15:04:19.744Z,3.03
2023-05-10T15:06:47.753Z,3.08
2023-05-10T15:09:16.493Z,2.70
2023-05-10T15:11:45.347Z,3.10
2023-05-10T15:14:12.784Z,2.63
2023-05-10T15:16:40.621Z,2.90
2023-05-10T15:19:09.475Z,3.70
2023-05-10T15:21:39.722Z,3.28
2023-05-10T15:24:07.390Z,3.15
2023-05-10T15:26:35.004Z,3.53
2023-05-10T15:29:02.579Z,3.88
2023-05-10T15:31:30.182Z,3.70
2023-05-10T15:33:59.333Z,3.75
2023-05-10T15:36:28.166Z,3.28
2023-05-10T15:38:56.858Z,4.22
2023-05-10T15:41:24.694Z,4.03
2023-05-10T15:43:52.225Z,3.30
2023-05-10T15:46:19.688Z,4.25
2023-05-10T15:48:47.191Z,4.45
2023-05-10T15:51:15.453Z,4.38
2023-05-10T15:53:56.550Z,4.80
2023-05-10T15:56:31.682Z,3.20
2023-05-10T15:58:59.132Z,2.95
2023-05-10T16:01:26.752Z,3.40
2023-05-10T16:03:54.333Z,3.40
2023-05-10T16:06:22.065Z,3.50
2023-05-10T16:08:51.994Z,4.00
2023-05-10T16:11:21.112Z,3.63
2023-05-10T16:13:48.611Z,3.67
2023-05-10T16:16:16.156Z,3.58
2023-05-10T16:18:43.807Z,3.22
2023-05-10T16:21:11.503Z,2.63
2023-05-10T16:23:38.951Z,3.55
2023-05-10T16:26:07.753Z,3.30
2023-05-10T16:28:35.319Z,3.42
2023-05-10T16:31:02.962Z,3.25
2023-05-10T16:33:30.738Z,3.90
2023-05-10T16:35:58.249Z,3.90
2023-05-10T16:38:25.730Z,3.85
2023-05-10T16:40:53.218Z,3.70
2023-05-10T16:43:24.005Z,3.40
2023-05-10T16:45:52.814Z,3.25
2023-05-10T16:48:20.466Z,3.40
2023-05-10T16:50:48.957Z,4.28
2023-05-10T16:53:17.012Z,4.00
2023-05-10T16:55:44.466Z,3.53
2023-05-10T16:58:11.938Z,3.30
2023-05-10T17:00:40.753Z,4.25
2023-05-10T17:03:08.369Z,4.03
2023-05-10T17:05:35.969Z,4.10
2023-05-10T17:08:03.436Z,4.68
2023-05-10T17:10:30.967Z,4.68
2023-05-10T17:12:58.484Z,4.65
2023-05-10T17:15:26.217Z,4.13
2023-05-10T17:17:55.141Z,5.18
2023-05-10T17:20:22.838Z,4.95
2023-05-10T17:22:50.411Z,5.05
2023-05-10T17:25:18.097Z,5.30
2023-05-10T17:27:45.808Z,5.40
2023-05-10T17:30:13.946Z,10.23
2023-05-10T17:32:41.459Z,5.15
2023-05-10T17:35:10.723Z,5.65
2023-05-10T17:37:38.190Z,5.43
2023-05-10T17:40:07.859Z,5.10
2023-05-10T17:42:35.358Z,4.93
2023-05-10T17:45:03.717Z,4.93
2023-05-10T17:47:31.203Z,5.40
2023-05-10T17:49:58.710Z,6.18
2023-05-10T17:52:29.360Z,5.88
2023-05-10T17:54:57.938Z,4.70
2023-05-10T17:57:25.424Z,5.80
2023-05-10T17:59:52.852Z,5.75
2023-05-10T18:02:20.361Z,5.80
2023-05-10T18:04:49.242Z,4.60
2023-05-10T18:07:16.892Z,4.90
2023-05-10T18:09:45.872Z,5.13
2023-05-10T18:12:13.524Z,4.75
2023-05-10T18:14:41.605Z,4.60
2023-05-10T18:17:09.995Z,4.68
2023-05-10T18:19:37.697Z,4.43
2023-05-10T18:22:05.505Z,4.60
2023-05-10T18:24:40.307Z,5.18
2023-05-10T18:27:09.747Z,5.53
2023-05-10T18:29:37.708Z,6.18
2023-05-10T18:32:05.709Z,6.20
2023-05-10T18:34:33.287Z,6.82
2023-05-10T18:37:02.413Z,6.38
2023-05-10T18:39:30.618Z,6.00
2023-05-10T18:41:58.088Z,6.13
2023-05-10T18:44:26.949Z,6.15
2023-05-10T18:46:54.409Z,6.53
2023-05-10T18:49:21.898Z,7.35
2023-05-10T18:51:49.408Z,8.35
2023-05-10T18:54:16.974Z,7.00
2023-05-10T18:56:45.226Z,7.05
2023-05-10T18:59:13.271Z,8.55
2023-05-10T19:01:42.706Z,7.30
2023-05-10T19:04:10.261Z,8.55
2023-05-10T19:06:37.762Z,9.98
2023-05-10T19:09:05.406Z,8.35
2023-05-10T19:11:34.402Z,7.63
2023-05-10T19:14:02.265Z,7.68
2023-05-10T19:16:30.574Z,7.13
2023-05-10T19:18:59.698Z,6.95
2023-05-10T19:21:27.630Z,7.45
2023-05-10T19:23:58.002Z,7.38
2023-05-10T19:26:25.939Z,7.03
2023-05-10T19:28:53.644Z,6.82
2023-05-10T19:31:21.908Z,7.35
2023-05-10T19:33:49.528Z,7.60
2023-05-10T19:36:18.365Z,7.30
2023-05-10T19:38:45.879Z,7.40
2023-05-10T19:41:13.393Z,7.22
2023-05-10T19:43:41.801Z,7.28
2023-05-10T19:46:09.874Z,6.93
2023-05-10T19:48:37.595Z,7.30
2023-05-10T19:51:09.285Z,7.30
2023-05-10T19:53:41.259Z,7.63
2023-05-10T19:56:08.804Z,7.57
2023-05-10T19:58:36.522Z,7.75
2023-05-10T20:01:05.731Z,7.90
2023-05-10T20:03:33.564Z,7.35
2023-05-10T20:06:01.656Z,7.93
2023-05-10T20:08:29.646Z,8.02
2023-05-10T20:11:00.569Z,7.85
2023-05-10T20:13:28.039Z,7.43
2023-05-10T20:15:56.811Z,7.20
2023-05-10T20:18:24.654Z,7.75
2023-05-10T20:20:54.776Z,7.28
2023-05-10T20:23:22.406Z,6.65
2023-05-10T20:25:50.144Z,6.68
2023-05-10T20:28:22.539Z,6.85
2023-05-10T20:30:53.239Z,6.75
2023-05-10T20:33:21.021Z,7.65
2023-05-10T20:35:48.946Z,8.18
2023-05-10T20:38:16.772Z,9.27
2023-05-10T20:40:44.397Z,9.45
2023-05-10T20:43:11.909Z,6.97
2023-05-10T20:45:40.737Z,9.63
2023-05-10T20:48:09.502Z,8.98
2023-05-10T20:50:37.001Z,8.02
2023-05-10T20:53:04.451Z,9.13
2023-05-10T20:55:31.936Z,8.98
2023-05-10T20:57:59.449Z,8.98
2023-05-10T21:00:27.178Z,8.32
2023-05-10T21:02:56.810Z,8.88
2023-05-10T21:05:24.496Z,9.88
2023-05-10T21:07:54.052Z,9.77
2023-05-10T21:10:21.871Z,9.57
2023-05-10T21:12:49.744Z,10.00
2023-05-10T21:15:17.601Z,8.93
2023-05-10T21:17:45.752Z,8.98
2023-05-10T21:20:15.244Z,8.85
2023-05-10T21:22:42.978Z,9.15
2023-05-10T21:25:10.926Z,9.65
2023-05-10T21:27:38.415Z,8.80
2023-05-10T21:30:07.247Z,9.10
2023-05-10T21:32:35.674Z,10.38
2023-05-10T21:35:04.218Z,8.93
2023-05-10T21:37:33.076Z,9.18
2023-05-10T21:40:02.005Z,8.88
2023-05-10T21:42:29.466Z,9.13
2023-05-10T21:44:57.000Z,8.90
2023-05-10T21:47:24.484Z,8.77
2023-05-10T21:49:51.967Z,8.70
2023-05-10T21:52:19.438Z,9.95
2023-05-10T21:54:48.542Z,9.50
2023-05-10T21:57:16.055Z,8.80
2023-05-10T21:59:43.552Z,8.50
2023-05-10T22:02:11.083Z,8.32
2023-05-10T22:04:38.578Z,8.50
2023-05-10T22:07:06.084Z,8.77
2023-05-10T22:09:33.569Z,8.43
2023-05-10T22:12:02.366Z,8.20
2023-05-10T22:14:29.822Z,8.85
2023-05-10T22:16:58.139Z,8.98
2023-05-10T22:19:25.824Z,9.15
2023-05-10T22:21:53.943Z,9.15
2023-05-10T22:24:21.431Z,8.50
2023-05-10T22:26:48.903Z,8.93
2023-05-10T22:29:17.722Z,9.45
2023-05-10T22:31:45.385Z,10.40
2023-05-10T22:34:12.853Z,9.48
2023-05-10T22:36:40.297Z,8.35
2023-05-10T22:39:08.283Z,9.43
2023-05-10T22:41:35.744Z,10.07
2023-05-10T22:44:04.848Z,8.93
2023-05-10T22:46:33.821Z,9.13
2023-05-10T22:49:01.730Z,8.82
2023-05-10T22:51:29.198Z,9.18
2023-05-10T22:53:56.673Z,8.57
2023-05-10T22:56:24.158Z,8.00
2023-05-10T22:58:52.220Z,8.52
2023-05-10T23:01:19.781Z,8.63
2023-05-10T23:03:48.620Z,8.32
2023-05-10T23:06:16.076Z,8.98
2023-05-10T23:08:43.543Z,8.07
2023-05-10T23:11:11.009Z,8.73
2023-05-10T23:13:38.469Z,8.60
2023-05-10T23:16:06.987Z,8.05
2023-05-10T23:18:34.787Z,8.45
2023-05-10T23:21:03.630Z,8.02
2023-05-10T23:23:32.674Z,8.90
2023-05-10T23:26:00.235Z,7.70
2023-05-10T23:28:27.761Z,8.63
2023-05-10T23:30:56.212Z,7.53
2023-05-10T23:33:24.223Z,8.73
2023-05-10T23:35:51.858Z,8.13
2023-05-10T23:38:20.660Z,8.88
2023-05-10T23:40:49.208Z,6.70
2023-05-10T23:43:17.569Z,7.05
2023-05-10T23:45:53.517Z,7.65
2023-05-10T23:48:21.013Z,7.70
2023-05-10T23:50:49.046Z,7.75
2023-05-10T23:53:16.768Z,8.40
2023-05-10T23:55:46.338Z,8.25
2023-05-10T23:58:13.831Z,8.32
